Time;durP1;ratioP1;P1;durP2;ratioP2;P2;SDS_P1;SDS_P2;PMS_P1;PMS_P2;Temp;Humidity;BMP_temperature;BMP_pressure;BME280_temperature;BME280_humidity;BME280_pressure;Samples;Min_cycle;Max_cycle;Signal;HPM_P1;HPM_P2
2023/01/26 00:01:43;;;;;;;44.57;31.73;;;;;;;;;;4962388;28;20246;-76
2023/01/26 00:04:09;;;;;;;40.33;29.40;;;;;;;;;;4952162;28;20259;-77
2023/01/26 00:06:34;;;;;;;36.93;29.00;;;;;;;;;;4957330;28;20397;-77
2023/01/26 00:09:03;;;;;;;40.03;31.10;;;;;;;;;;4970725;28;20217;-76
2023/01/26 00:11:30;;;;;;;36.90;29.53;;;;;;;;;;4942149;28;20524;-77
2023/01/26 00:13:59;;;;;;;39.57;29.30;;;;;;;;;;4963368;28;20225;-76
2023/01/26 00:16:24;;;;;;;38.53;30.17;;;;;;;;;;4949891;28;20360;-77
2023/01/26 00:18:50;;;;;;;39.30;30.80;;;;;;;;;;4968734;28;20236;-76
2023/01/26 00:21:21;;;;;;;44.60;29.80;;;;;;;;;;4953964;28;20214;-77
2023/01/26 00:23:47;;;;;;;39.47;29.47;;;;;;;;;;4963576;28;20257;-76
2023/01/26 00:26:16;;;;;;;40.30;30.53;;;;;;;;;;4958893;28;20222;-77
2023/01/26 00:28:44;;;;;;;35.77;28.27;;;;;;;;;;4953528;28;20296;-76
2023/01/26 00:31:11;;;;;;;43.37;28.63;;;;;;;;;;4961667;28;20226;-77
2023/01/26 00:33:37;;;;;;;40.40;29.17;;;;;;;;;;4968652;28;20230;-77
2023/01/26 00:36:05;;;;;;;38.07;27.83;;;;;;;;;;4958386;28;20218;-76
2023/01/26 00:38:31;;;;;;;40.60;30.40;;;;;;;;;;4969115;28;20234;-76
2023/01/26 00:40:58;;;;;;;42.97;29.60;;;;;;;;;;4971289;28;20225;-76
2023/01/26 00:43:29;;;;;;;40.67;29.67;;;;;;;;;;4960831;28;20229;-77
2023/01/26 00:45:54;;;;;;;40.87;29.33;;;;;;;;;;4947153;28;20808;-76
2023/01/26 00:48:22;;;;;;;38.97;30.13;;;;;;;;;;4973188;28;20226;-77
2023/01/26 00:50:58;;;;;;;39.83;29.10;;;;;;;;;;4969570;28;20230;-76
2023/01/26 00:53:26;;;;;;;40.30;29.33;;;;;;;;;;4953889;28;20218;-76
2023/01/26 00:55:56;;;;;;;40.53;29.07;;;;;;;;;;4956552;28;20225;-77
2023/01/26 00:58:22;;;;;;;40.10;30.77;;;;;;;;;;4979552;28;20214;-77
2023/01/26 01:00:52;;;;;;;44.13;31.43;;;;;;;;;;4961887;28;20249;-76
2023/01/26 01:03:19;;;;;;;45.30;31.77;;;;;;;;;;4974682;28;20226;-76
2023/01/26 01:05:48;;;;;;;42.00;30.80;;;;;;;;;;4958099;28;20235;-76
2023/01/26 01:08:16;;;;;;;39.07;30.80;;;;;;;;;;4955411;28;20233;-76
2023/01/26 01:10:47;;;;;;;46.03;32.97;;;;;;;;;;4952645;28;20774;-76
2023/01/26 01:13:16;;;;;;;41.73;31.97;;;;;;;;;;4966063;28;20645;-76
2023/01/26 01:15:44;;;;;;;40.70;30.37;;;;;;;;;;4952518;28;20813;-77
2023/01/26 01:18:12;;;;;;;43.90;31.87;;;;;;;;;;4953153;28;20217;-77
2023/01/26 01:20:39;;;;;;;41.43;30.73;;;;;;;;;;4952105;28;20578;-77
2023/01/26 01:23:08;;;;;;;47.47;32.33;;;;;;;;;;4944737;28;20622;-76
2023/01/26 01:25:38;;;;;;;40.73;31.57;;;;;;;;;;4971762;28;20292;-77
2023/01/26 01:28:09;;;;;;;50.77;32.90;;;;;;;;;;4982723;28;20241;-77
2023/01/26 01:30:37;;;;;;;41.87;31.10;;;;;;;;;;4957871;28;20689;-76
2023/01/26 01:33:03;;;;;;;46.07;32.97;;;;;;;;;;4977112;28;20214;-77
2023/01/26 01:35:36;;;;;;;46.60;33.30;;;;;;;;;;4963095;28;20240;-77
2023/01/26 01:38:01;;;;;;;43.60;31.03;;;;;;;;;;4953894;28;20217;-76
2023/01/26 01:40:29;;;;;;;43.87;31.03;;;;;;;;;;4948159;28;20702;-77
2023/01/26 01:42:54;;;;;;;46.27;32.37;;;;;;;;;;4952436;28;20219;-76
2023/01/26 01:45:28;;;;;;;43.27;31.00;;;;;;;;;;4958149;28;20718;-77
2023/01/26 01:47:58;;;;;;;44.03;32.47;;;;;;;;;;4949122;28;20245;-76
2023/01/26 01:50:24;;;;;;;45.17;34.13;;;;;;;;;;4959657;28;20222;-77
2023/01/26 01:52:54;;;;;;;44.73;32.60;;;;;;;;;;4951241;28;20245;-76
2023/01/26 01:55:24;;;;;;;45.97;33.40;;;;;;;;;;4961242;28;20233;-75
2023/01/26 01:57:54;;;;;;;46.93;34.40;;;;;;;;;;4981557;28;21027;-76
2023/01/26 02:00:21;;;;;;;47.17;33.33;;;;;;;;;;4957349;28;20651;-76
2023/01/26 02:03:17;;;;;;;45.67;30.60;;;;;;;;;;4967959;28;20710;-75
2023/01/26 02:06:05;;;;;;;50.53;34.37;;;;;;;;;;4952137;28;20226;-76
2023/01/26 02:08:44;;;;;;;46.20;32.20;;;;;;;;;;4966491;28;20238;-76
2023/01/26 02:11:18;;;;;;;42.67;31.37;;;;;;;;;;4959011;28;20714;-76
2023/01/26 02:13:45;;;;;;;41.43;31.03;;;;;;;;;;4973282;28;20225;-76
2023/01/26 02:16:13;;;;;;;45.50;32.33;;;;;;;;;;4967704;28;20683;-76
2023/01/26 02:18:39;;;;;;;44.30;31.00;;;;;;;;;;4952914;28;20218;-76
2023/01/26 02:21:11;;;;;;;44.47;31.73;;;;;;;;;;4951803;28;20221;-76
2023/01/26 02:23:44;;;;;;;43.03;32.17;;;;;;;;;;4951003;28;20226;-76
2023/01/26 02:26:13;;;;;;;42.77;29.87;;;;;;;;;;4963349;28;20234;-76
2023/01/26 02:28:43;;;;;;;43.90;32.10;;;;;;;;;;4936443;28;20237;-76
2023/01/26 02:31:11;;;;;;;41.57;28.87;;;;;;;;;;4948477;28;20226;-75
2023/01/26 02:33:37;;;;;;;44.93;30.33;;;;;;;;;;4944944;28;20230;-75
2023/01/26 02:36:04;;;;;;;41.10;30.13;;;;;;;;;;4955323;28;20226;-75
2023/01/26 02:38:36;;;;;;;40.33;29.43;;;;;;;;;;4949979;28;20233;-76
2023/01/26 02:41:05;;;;;;;39.20;28.03;;;;;;;;;;4938285;28;20222;-75
2023/01/26 02:43:33;;;;;;;39.57;27.43;;;;;;;;;;4970044;28;20229;-75
2023/01/26 02:46:01;;;;;;;39.70;28.57;;;;;;;;;;4947260;28;20799;-77
2023/01/26 02:51:13;;;;;;;39.70;29.53;;;;;;;;;;4977878;28;20264;-77
2023/01/26 02:53:42;;;;;;;37.93;26.93;;;;;;;;;;4951742;28;20219;-77
2023/01/26 02:56:09;;;;;;;39.03;29.33;;;;;;;;;;4947263;28;20253;-77
2023/01/26 02:58:35;;;;;;;45.50;28.40;;;;;;;;;;4953802;28;20234;-76
2023/01/26 03:01:05;;;;;;;42.50;28.03;;;;;;;;;;4963822;28;20229;-76
2023/01/26 03:03:43;;;;;;;39.10;28.40;;;;;;;;;;4957115;28;20230;-76
2023/01/26 03:06:14;;;;;;;38.80;26.47;;;;;;;;;;4963397;28;20225;-75
2023/01/26 03:08:39;;;;;;;33.97;25.27;;;;;;;;;;4963165;28;20249;-75
2023/01/26 03:11:10;;;;;;;33.00;25.13;;;;;;;;;;4949677;28;20221;-75
2023/01/26 03:13:38;;;;;;;33.97;24.70;;;;;;;;;;4957520;28;20724;-75
2023/01/26 03:16:08;;;;;;;37.87;25.87;;;;;;;;;;4966231;28;20277;-76
2023/01/26 03:27:48;;;;;;;32.10;24.13;;;;;;;;;;4955260;28;20225;-75
2023/01/26 03:29:54;;;;;;;31.67;25.17;;;;;;;;;;4938430;28;20244;-76
2023/01/26 03:32:23;;;;;;;34.83;25.17;;;;;;;;;;4960737;28;20305;-76
2023/01/26 03:34:50;;;;;;;32.10;24.83;;;;;;;;;;4953812;28;20218;-76
2023/01/26 03:37:20;;;;;;;34.20;26.03;;;;;;;;;;4954914;28;20233;-76
2023/01/26 03:56:31;;;;;;;35.20;25.97;;;;;;;;;;4951314;28;20238;-75
2023/01/26 03:59:07;;;;;;;38.63;26.60;;;;;;;;;;4954745;28;20280;-76
2023/01/26 04:01:39;;;;;;;34.67;25.13;;;;;;;;;;4960044;28;20226;-76
2023/01/26 04:09:46;;;;;;;37.63;26.77;;;;;;;;;;4963437;28;20690;-76
2023/01/26 04:12:12;;;;;;;37.53;26.87;;;;;;;;;;4957506;28;20597;-76
2023/01/26 04:23:01;;;;;;;36.07;25.93;;;;;;;;;;4958442;28;20316;-76
2023/01/26 04:25:27;;;;;;;37.20;27.50;;;;;;;;;;4962062;28;20227;-76
2023/01/26 04:27:55;;;;;;;37.10;26.53;;;;;;;;;;4955098;28;20369;-78
2023/01/26 04:30:23;;;;;;;35.00;26.97;;;;;;;;;;4961773;28;20217;-76
2023/01/26 04:32:49;;;;;;;34.50;25.77;;;;;;;;;;4957938;28;20222;-75
2023/01/26 04:35:17;;;;;;;41.90;27.83;;;;;;;;;;4948930;28;20215;-76
2023/01/26 04:37:42;;;;;;;39.53;27.47;;;;;;;;;;4960758;28;20221;-76
2023/01/26 04:40:13;;;;;;;36.60;26.17;;;;;;;;;;4961169;28;20214;-77
2023/01/26 04:42:41;;;;;;;36.40;26.77;;;;;;;;;;4968617;28;20222;-76
2023/01/26 04:45:12;;;;;;;35.50;26.53;;;;;;;;;;4971349;23;20233;-86
2023/01/26 04:47:38;;;;;;;35.97;26.80;;;;;;;;;;4965343;28;20307;-86
2023/01/26 04:50:05;;;;;;;36.87;27.43;;;;;;;;;;4953887;28;20305;-81
2023/01/26 04:52:33;;;;;;;39.10;29.27;;;;;;;;;;4966303;28;20487;-81
2023/01/26 04:54:59;;;;;;;41.27;27.23;;;;;;;;;;4976637;28;20228;-80
2023/01/26 04:57:24;;;;;;;40.93;27.27;;;;;;;;;;4965439;28;20713;-80
2023/01/26 04:59:50;;;;;;;40.00;28.03;;;;;;;;;;4956069;28;20241;-80
2023/01/26 05:02:21;;;;;;;36.87;27.70;;;;;;;;;;4974441;28;20218;-80
2023/01/26 05:04:47;;;;;;;39.73;28.00;;;;;;;;;;4960847;28;20360;-80
2023/01/26 05:07:16;;;;;;;38.03;27.03;;;;;;;;;;4976511;28;20216;-81
2023/01/26 05:09:43;;;;;;;38.93;27.13;;;;;;;;;;4991774;28;20255;-82
2023/01/26 05:12:35;;;;;;;35.07;25.93;;;;;;;;;;4989862;28;20714;-81
2023/01/26 05:15:39;;;;;;;35.37;26.57;;;;;;;;;;4974878;28;20226;-81
2023/01/26 05:18:13;;;;;;;37.57;26.40;;;;;;;;;;4970050;28;20643;-80
2023/01/26 05:20:58;;;;;;;37.70;27.60;;;;;;;;;;4972059;28;20233;-80
2023/01/26 05:23:25;;;;;;;37.93;27.20;;;;;;;;;;4968048;28;20237;-81
2023/01/26 05:26:21;;;;;;;42.60;27.53;;;;;;;;;;4977397;28;20221;-81
2023/01/26 05:28:54;;;;;;;36.73;26.90;;;;;;;;;;4974345;28;20287;-80
2023/01/26 05:31:22;;;;;;;39.37;27.63;;;;;;;;;;4979521;28;20209;-80
2023/01/26 05:33:48;;;;;;;39.67;26.23;;;;;;;;;;4958155;28;20691;-80
2023/01/26 05:36:19;;;;;;;41.67;26.17;;;;;;;;;;4977738;28;20304;-80
2023/01/26 05:38:46;;;;;;;38.30;27.47;;;;;;;;;;4982233;28;20221;-80
2023/01/26 05:41:14;;;;;;;41.70;26.47;;;;;;;;;;4977469;28;20312;-81
2023/01/26 05:44:03;;;;;;;39.87;27.17;;;;;;;;;;4979160;28;20253;-81
2023/01/26 05:46:34;;;;;;;36.20;25.00;;;;;;;;;;4957786;28;20239;-81
2023/01/26 05:49:01;;;;;;;40.17;28.13;;;;;;;;;;4989852;28;20657;-81
2023/01/26 05:51:26;;;;;;;39.03;28.27;;;;;;;;;;4970446;28;20213;-82
2023/01/26 05:53:52;;;;;;;36.87;26.70;;;;;;;;;;4976780;28;20278;-81
2023/01/26 05:56:17;;;;;;;45.97;32.67;;;;;;;;;;4981584;28;20217;-81
2023/01/26 05:58:48;;;;;;;42.20;30.87;;;;;;;;;;5001479;28;20276;-81
2023/01/26 06:01:14;;;;;;;38.83;28.10;;;;;;;;;;4991698;28;20226;-81
2023/01/26 06:03:47;;;;;;;36.97;26.70;;;;;;;;;;4975156;28;20272;-81
2023/01/26 06:06:15;;;;;;;39.30;28.07;;;;;;;;;;4965906;28;20217;-81
2023/01/26 06:09:06;;;;;;;40.83;27.37;;;;;;;;;;4983132;28;20252;-81
2023/01/26 06:11:34;;;;;;;40.23;28.17;;;;;;;;;;4993774;28;20656;-81
2023/01/26 06:14:22;;;;;;;42.73;26.97;;;;;;;;;;4980270;28;20222;-81
2023/01/26 06:16:47;;;;;;;38.13;26.40;;;;;;;;;;4971170;28;20231;-81
2023/01/26 06:19:17;;;;;;;39.90;27.33;;;;;;;;;;4993974;28;20225;-81
2023/01/26 06:21:48;;;;;;;43.83;28.93;;;;;;;;;;4995722;28;20248;-81
2023/01/26 06:24:14;;;;;;;42.17;29.47;;;;;;;;;;4979761;28;20279;-79
2023/01/26 06:26:39;;;;;;;39.30;28.33;;;;;;;;;;4970175;28;20229;-81
2023/01/26 06:29:07;;;;;;;38.97;28.40;;;;;;;;;;4995689;28;20232;-81
2023/01/26 06:31:38;;;;;;;45.07;31.27;;;;;;;;;;4945067;28;20253;-81
2023/01/26 06:34:07;;;;;;;40.80;29.03;;;;;;;;;;4998554;28;20224;-81
2023/01/26 06:36:37;;;;;;;40.20;28.40;;;;;;;;;;4976788;28;20256;-81
2023/01/26 06:39:09;;;;;;;42.83;28.83;;;;;;;;;;4980024;28;20246;-81
2023/01/26 06:41:35;;;;;;;41.63;27.83;;;;;;;;;;4971880;28;20273;-82
2023/01/26 06:44:05;;;;;;;44.70;29.93;;;;;;;;;;4973741;28;20226;-82
2023/01/26 06:46:33;;;;;;;39.37;27.97;;;;;;;;;;4965181;28;20240;-82
2023/01/26 06:49:01;;;;;;;39.90;26.90;;;;;;;;;;4974699;28;20232;-79
2023/01/26 06:51:46;;;;;;;38.50;28.07;;;;;;;;;;4962942;28;20256;-81
2023/01/26 06:54:14;;;;;;;46.70;28.00;;;;;;;;;;4972054;28;20233;-80
2023/01/26 06:56:58;;;;;;;38.63;27.47;;;;;;;;;;4967902;28;20229;-80
2023/01/26 06:59:52;;;;;;;41.93;27.33;;;;;;;;;;4953825;28;20264;-80
2023/01/26 07:02:29;;;;;;;42.70;27.33;;;;;;;;;;4994852;28;20588;-81
2023/01/26 07:05:10;;;;;;;53.50;34.70;;;;;;;;;;4980528;28;20226;-80
2023/01/26 07:07:35;;;;;;;55.63;34.57;;;;;;;;;;4961882;28;20270;-81
2023/01/26 07:10:02;;;;;;;63.70;42.70;;;;;;;;;;4992993;28;20677;-81
2023/01/26 07:12:42;;;;;;;56.77;35.80;;;;;;;;;;4979576;28;20236;-81
2023/01/26 07:15:08;;;;;;;48.63;31.27;;;;;;;;;;4988458;28;20771;-80
2023/01/26 07:17:34;;;;;;;46.90;32.60;;;;;;;;;;4970110;28;20230;-79
2023/01/26 07:20:00;;;;;;;44.40;32.57;;;;;;;;;;4978355;28;20353;-81
2023/01/26 07:22:25;;;;;;;40.60;27.83;;;;;;;;;;4941626;28;20241;-81
2023/01/26 07:24:51;;;;;;;43.37;30.33;;;;;;;;;;4996259;28;20229;-82
2023/01/26 07:27:18;;;;;;;41.73;31.83;;;;;;;;;;4991840;28;20226;-81
2023/01/26 07:29:45;;;;;;;40.70;28.97;;;;;;;;;;4967831;28;20255;-80
2023/01/26 07:32:11;;;;;;;39.07;27.97;;;;;;;;;;4981505;28;20217;-80
2023/01/26 07:34:36;;;;;;;39.03;26.87;;;;;;;;;;4973174;28;20807;-80
2023/01/26 07:37:06;;;;;;;46.63;28.40;;;;;;;;;;4997552;28;20217;-79
2023/01/26 07:39:32;;;;;;;42.13;28.83;;;;;;;;;;4985405;28;20241;-81
2023/01/26 07:41:57;;;;;;;52.83;28.27;;;;;;;;;;4986259;28;20271;-81
2023/01/26 07:44:43;;;;;;;44.40;29.53;;;;;;;;;;4994716;28;20236;-81
2023/01/26 07:47:09;;;;;;;36.60;27.70;;;;;;;;;;4994319;28;20358;-81
2023/01/26 07:49:37;;;;;;;39.97;27.53;;;;;;;;;;4977514;28;20229;-81
2023/01/26 07:52:04;;;;;;;39.27;26.07;;;;;;;;;;4969695;28;20217;-80
2023/01/26 07:54:30;;;;;;;37.23;26.03;;;;;;;;;;4978594;28;20240;-81
2023/01/26 07:57:00;;;;;;;42.47;25.73;;;;;;;;;;4969840;28;20221;-81
2023/01/26 07:59:25;;;;;;;32.93;22.63;;;;;;;;;;4957185;28;20221;-81
2023/01/26 08:01:53;;;;;;;31.77;21.97;;;;;;;;;;4991185;28;20231;-81
2023/01/26 08:04:19;;;;;;;39.23;24.57;;;;;;;;;;4963076;28;21106;-81
2023/01/26 08:06:45;;;;;;;34.70;23.47;;;;;;;;;;4972791;28;20218;-81
2023/01/26 08:09:10;;;;;;;32.17;21.23;;;;;;;;;;4947888;28;20233;-80
2023/01/26 08:11:38;;;;;;;29.60;21.17;;;;;;;;;;4994898;28;20253;-80
2023/01/26 08:14:04;;;;;;;31.03;21.47;;;;;;;;;;4974085;28;20228;-81
2023/01/26 08:16:34;;;;;;;30.13;20.43;;;;;;;;;;4969198;28;20233;-80
2023/01/26 08:19:02;;;;;;;26.57;18.23;;;;;;;;;;4977072;28;20300;-80
2023/01/26 08:21:29;;;;;;;30.27;19.53;;;;;;;;;;4975794;28;20259;-80
2023/01/26 08:24:00;;;;;;;29.07;19.17;;;;;;;;;;4986899;28;20507;-80
2023/01/26 08:26:26;;;;;;;28.50;19.83;;;;;;;;;;4979713;28;20225;-79
2023/01/26 08:28:53;;;;;;;28.00;20.07;;;;;;;;;;4964556;28;20243;-81
2023/01/26 08:31:23;;;;;;;27.87;19.67;;;;;;;;;;4978730;28;20225;-79
2023/01/26 08:33:53;;;;;;;27.03;18.47;;;;;;;;;;4974577;28;20731;-80
2023/01/26 08:36:18;;;;;;;26.43;18.70;;;;;;;;;;4979585;28;20225;-80
2023/01/26 08:38:44;;;;;;;25.57;17.83;;;;;;;;;;4981887;28;20229;-79
2023/01/26 08:41:10;;;;;;;24.53;17.87;;;;;;;;;;4963499;28;20837;-80
2023/01/26 08:43:38;;;;;;;25.70;17.33;;;;;;;;;;4979194;28;20233;-78
2023/01/26 08:46:04;;;;;;;24.23;17.20;;;;;;;;;;4981621;28;20244;-79
2023/01/26 08:48:30;;;;;;;23.83;17.00;;;;;;;;;;4964284;28;20237;-79
2023/01/26 08:50:59;;;;;;;23.43;17.40;;;;;;;;;;4995177;28;20241;-80
2023/01/26 08:53:24;;;;;;;22.83;16.43;;;;;;;;;;4974512;28;20626;-79
2023/01/26 08:55:50;;;;;;;26.10;18.20;;;;;;;;;;4964593;28;20233;-79
2023/01/26 08:58:16;;;;;;;24.43;17.53;;;;;;;;;;4981296;28;21145;-80
2023/01/26 09:00:44;;;;;;;24.00;16.30;;;;;;;;;;4981255;28;20309;-79
2023/01/26 09:03:09;;;;;;;22.03;16.73;;;;;;;;;;4999500;28;20232;-80
2023/01/26 09:05:36;;;;;;;21.97;16.33;;;;;;;;;;4980757;28;20233;-80
2023/01/26 09:08:06;;;;;;;25.70;17.13;;;;;;;;;;4996973;28;20233;-80
2023/01/26 09:10:32;;;;;;;18.77;14.53;;;;;;;;;;4981309;28;20439;-80
2023/01/26 09:12:57;;;;;;;20.57;16.20;;;;;;;;;;4979280;28;21086;-79
2023/01/26 09:15:23;;;;;;;22.63;16.50;;;;;;;;;;4969228;28;20307;-79
2023/01/26 09:17:49;;;;;;;21.33;15.47;;;;;;;;;;4982637;28;20707;-80
2023/01/26 09:20:15;;;;;;;19.13;14.57;;;;;;;;;;4986838;28;20221;-79
2023/01/26 09:22:41;;;;;;;24.67;15.90;;;;;;;;;;4948679;28;20357;-79
2023/01/26 09:25:07;;;;;;;22.50;15.40;;;;;;;;;;4985057;28;20221;-79
2023/01/26 09:27:48;;;;;;;21.03;15.80;;;;;;;;;;4994684;28;20300;-80
2023/01/26 09:30:16;;;;;;;20.77;15.23;;;;;;;;;;4977884;28;20225;-80
2023/01/26 09:32:44;;;;;;;22.23;16.10;;;;;;;;;;5005398;28;20229;-78
2023/01/26 09:35:12;;;;;;;20.67;15.80;;;;;;;;;;4948298;28;20943;-78
2023/01/26 09:37:42;;;;;;;22.00;16.13;;;;;;;;;;4982702;28;20253;-77
2023/01/26 09:40:13;;;;;;;20.70;16.23;;;;;;;;;;4987159;28;20269;-79
2023/01/26 09:43:06;;;;;;;22.87;16.43;;;;;;;;;;5013789;28;20240;-79
2023/01/26 09:46:14;;;;;;;22.40;16.70;;;;;;;;;;4990701;28;20473;-80
2023/01/26 09:48:49;;;;;;;21.57;16.30;;;;;;;;;;4998294;28;20321;-80
2023/01/26 09:51:18;;;;;;;21.13;16.27;;;;;;;;;;4990055;28;20285;-79
2023/01/26 09:53:51;;;;;;;21.47;16.00;;;;;;;;;;4987654;28;20291;-79
2023/01/26 09:56:18;;;;;;;22.27;16.07;;;;;;;;;;5004780;28;20225;-81
2023/01/26 09:59:23;;;;;;;20.27;16.20;;;;;;;;;;5002512;28;20221;-81
2023/01/26 10:02:28;;;;;;;20.90;14.50;;;;;;;;;;4995293;28;20292;-79
2023/01/26 10:04:58;;;;;;;20.30;15.63;;;;;;;;;;5027797;28;20229;-80
2023/01/26 10:07:26;;;;;;;21.97;15.93;;;;;;;;;;4992672;28;20233;-79
2023/01/26 10:09:54;;;;;;;25.00;16.83;;;;;;;;;;4991616;28;20217;-81
2023/01/26 10:12:30;;;;;;;24.10;18.40;;;;;;;;;;4976817;28;20236;-80
2023/01/26 10:15:24;;;;;;;22.40;16.47;;;;;;;;;;4963807;28;20245;-80
2023/01/26 10:17:50;;;;;;;21.37;16.63;;;;;;;;;;5002115;28;20690;-80
2023/01/26 10:20:41;;;;;;;22.67;15.90;;;;;;;;;;4966538;28;20221;-81
2023/01/26 10:23:25;;;;;;;23.13;15.90;;;;;;;;;;4973508;28;20222;-80
2023/01/26 10:25:50;;;;;;;20.90;15.50;;;;;;;;;;4987203;28;20221;-80
2023/01/26 10:28:33;;;;;;;20.27;15.93;;;;;;;;;;5000447;28;20245;-80
2023/01/26 10:30:59;;;;;;;19.13;15.07;;;;;;;;;;5001354;28;20346;-80
2023/01/26 10:33:35;;;;;;;23.80;16.03;;;;;;;;;;4974217;28;20957;-80
2023/01/26 10:36:05;;;;;;;19.00;14.93;;;;;;;;;;4994257;28;20246;-80
2023/01/26 10:38:34;;;;;;;21.13;15.73;;;;;;;;;;4997197;28;20368;-80
2023/01/26 10:41:00;;;;;;;18.50;15.20;;;;;;;;;;5021894;28;20758;-80
2023/01/26 10:43:26;;;;;;;22.93;15.87;;;;;;;;;;5006241;28;20304;-80
2023/01/26 10:45:54;;;;;;;20.23;16.10;;;;;;;;;;4964268;28;20226;-80
2023/01/26 10:48:25;;;;;;;20.63;16.00;;;;;;;;;;4986428;28;20295;-80
2023/01/26 10:50:51;;;;;;;23.33;16.97;;;;;;;;;;4974104;28;20631;-81
2023/01/26 10:53:24;;;;;;;18.80;15.90;;;;;;;;;;4989108;28;20221;-79
2023/01/26 10:55:57;;;;;;;21.47;16.03;;;;;;;;;;4948596;28;20234;-79
2023/01/26 10:58:41;;;;;;;21.63;15.67;;;;;;;;;;4997254;28;20237;-80
2023/01/26 11:01:14;;;;;;;19.47;15.53;;;;;;;;;;4997569;28;20596;-80
2023/01/26 11:03:58;;;;;;;20.57;15.47;;;;;;;;;;4988195;28;20294;-80
2023/01/26 11:06:26;;;;;;;21.03;16.30;;;;;;;;;;4997450;28;20213;-79
2023/01/26 11:08:52;;;;;;;20.07;15.00;;;;;;;;;;4976862;28;20230;-80
2023/01/26 11:11:29;;;;;;;20.40;15.43;;;;;;;;;;4990044;28;20280;-79
2023/01/26 11:14:19;;;;;;;20.63;14.90;;;;;;;;;;4987121;28;20311;-80
2023/01/26 11:16:48;;;;;;;21.10;15.10;;;;;;;;;;5030894;28;20233;-80
2023/01/26 11:19:29;;;;;;;22.00;15.50;;;;;;;;;;5001723;28;20281;-79
2023/01/26 11:21:59;;;;;;;21.87;17.00;;;;;;;;;;4981550;28;20241;-78
2023/01/26 11:24:51;;;;;;;23.77;17.63;;;;;;;;;;4997576;28;20761;-79
2023/01/26 11:27:30;;;;;;;21.37;15.73;;;;;;;;;;5000514;28;20234;-80
2023/01/26 11:30:18;;;;;;;18.37;15.03;;;;;;;;;;5001706;28;20224;-78
2023/01/26 11:33:02;;;;;;;21.07;15.97;;;;;;;;;;4970158;28;20304;-78
2023/01/26 11:35:33;;;;;;;19.10;16.57;;;;;;;;;;4998879;28;20275;-80
2023/01/26 11:38:37;;;;;;;22.90;19.23;;;;;;;;;;5005418;28;20236;-78
2023/01/26 11:41:27;;;;;;;23.47;15.37;;;;;;;;;;5000924;28;20228;-79
2023/01/26 11:43:56;;;;;;;16.83;14.10;;;;;;;;;;5016490;28;20240;-80
2023/01/26 11:46:28;;;;;;;16.83;13.07;;;;;;;;;;4991238;28;20239;-81
2023/01/26 11:49:28;;;;;;;20.83;16.27;;;;;;;;;;4981755;28;20322;-80
2023/01/26 11:52:18;;;;;;;14.97;13.23;;;;;;;;;;5014217;28;20233;-79
2023/01/26 11:55:06;;;;;;;16.20;12.50;;;;;;;;;;4997050;28;20231;-80
2023/01/26 11:57:40;;;;;;;17.93;13.33;;;;;;;;;;4996737;28;20229;-81
2023/01/26 12:00:25;;;;;;;20.30;14.63;;;;;;;;;;5014358;28;20291;-81
2023/01/26 12:03:11;;;;;;;19.60;14.77;;;;;;;;;;4979698;28;20312;-81
2023/01/26 12:05:42;;;;;;;14.90;12.37;;;;;;;;;;4960905;28;20247;-81
2023/01/26 12:08:47;;;;;;;56.00;33.30;;;;;;;;;;4971514;28;20236;-79
2023/01/26 12:11:22;;;;;;;68.43;36.30;;;;;;;;;;4978197;28;20650;-80
2023/01/26 12:13:55;;;;;;;21.40;15.27;;;;;;;;;;4982624;28;20233;-81
2023/01/26 12:16:32;;;;;;;18.00;15.10;;;;;;;;;;4973448;28;20544;-79
2023/01/26 12:19:08;;;;;;;24.67;17.20;;;;;;;;;;5012130;28;20221;-80
2023/01/26 12:21:34;;;;;;;18.37;15.43;;;;;;;;;;4997615;28;20240;-79
2023/01/26 12:24:05;;;;;;;15.83;11.83;;;;;;;;;;4957066;28;20224;-79
2023/01/26 12:26:41;;;;;;;15.73;12.13;;;;;;;;;;4973708;28;20229;-79
2023/01/26 12:29:25;;;;;;;16.20;12.20;;;;;;;;;;4961874;28;20225;-79
2023/01/26 12:32:02;;;;;;;12.30;10.90;;;;;;;;;;4957921;28;20229;-78
2023/01/26 12:34:30;;;;;;;14.80;12.13;;;;;;;;;;5019021;28;20251;-79
2023/01/26 12:37:05;;;;;;;16.90;11.10;;;;;;;;;;4979323;28;20739;-79
2023/01/26 12:39:44;;;;;;;17.90;13.17;;;;;;;;;;4997551;28;20310;-79
2023/01/26 12:42:37;;;;;;;14.33;11.77;;;;;;;;;;4969150;28;20731;-79
2023/01/26 12:45:08;;;;;;;9.50;8.50;;;;;;;;;;5002252;28;20525;-80
2023/01/26 12:47:43;;;;;;;11.80;9.90;;;;;;;;;;4978158;28;20589;-79
2023/01/26 12:50:27;;;;;;;11.90;10.13;;;;;;;;;;4967057;28;20221;-78
2023/01/26 12:53:16;;;;;;;14.27;9.07;;;;;;;;;;4993289;28;20228;-79
2023/01/26 12:55:46;;;;;;;13.00;9.60;;;;;;;;;;5003069;28;20605;-79
2023/01/26 12:58:16;;;;;;;11.40;9.03;;;;;;;;;;4991066;28;20275;-79
2023/01/26 13:00:58;;;;;;;9.17;7.57;;;;;;;;;;4972066;28;20239;-80
2023/01/26 13:03:25;;;;;;;8.00;7.20;;;;;;;;;;4979145;28;20222;-79
2023/01/26 13:06:17;;;;;;;10.60;7.83;;;;;;;;;;4995099;28;20225;-79
2023/01/26 13:09:04;;;;;;;9.93;8.03;;;;;;;;;;4998682;28;20629;-80
2023/01/26 13:11:52;;;;;;;8.83;7.93;;;;;;;;;;4991442;28;20286;-79
2023/01/26 13:14:25;;;;;;;9.43;8.43;;;;;;;;;;4972854;28;20313;-78
2023/01/26 13:16:51;;;;;;;10.27;8.90;;;;;;;;;;4963431;28;20234;-79
2023/01/26 13:19:47;;;;;;;12.00;9.20;;;;;;;;;;4988436;28;20222;-76
2023/01/26 13:22:21;;;;;;;10.10;9.10;;;;;;;;;;4993362;28;20225;-79
2023/01/26 13:24:57;;;;;;;12.27;9.87;;;;;;;;;;4994338;28;20226;-79
2023/01/26 13:27:35;;;;;;;12.40;8.97;;;;;;;;;;4984290;28;20263;-78
2023/01/26 13:30:03;;;;;;;9.07;8.10;;;;;;;;;;4991954;28;20232;-79
2023/01/26 13:32:35;;;;;;;14.70;9.80;;;;;;;;;;4979111;28;20221;-78
2023/01/26 13:35:06;;;;;;;12.87;8.87;;;;;;;;;;4992835;28;20308;-80
2023/01/26 13:38:01;;;;;;;11.97;9.67;;;;;;;;;;4959965;28;20222;-79
2023/01/26 13:40:34;;;;;;;10.30;9.13;;;;;;;;;;4949698;28;20717;-80
2023/01/26 13:43:39;;;;;;;11.27;9.20;;;;;;;;;;4954843;28;20224;-79
2023/01/26 13:46:21;;;;;;;11.10;9.37;;;;;;;;;;4991177;28;20325;-80
2023/01/26 13:48:48;;;;;;;14.00;9.80;;;;;;;;;;4990991;28;20347;-78
2023/01/26 13:51:21;;;;;;;13.83;11.27;;;;;;;;;;4997313;28;20221;-79
2023/01/26 13:54:00;;;;;;;13.27;11.20;;;;;;;;;;4937589;28;20283;-80
2023/01/26 13:56:29;;;;;;;15.93;10.73;;;;;;;;;;4950059;28;20253;-79
2023/01/26 13:59:09;;;;;;;14.67;9.57;;;;;;;;;;4948044;28;20230;-80
2023/01/26 14:01:42;;;;;;;21.30;16.43;;;;;;;;;;4965612;28;20237;-77
2023/01/26 14:04:12;;;;;;;21.63;16.07;;;;;;;;;;4989426;28;20259;-78
2023/01/26 14:06:43;;;;;;;16.03;11.47;;;;;;;;;;4976349;28;20321;-77
2023/01/26 14:09:10;;;;;;;19.00;12.30;;;;;;;;;;4993697;28;20221;-80
2023/01/26 14:11:40;;;;;;;14.70;12.10;;;;;;;;;;4966333;28;20229;-80
2023/01/26 14:14:10;;;;;;;17.30;11.23;;;;;;;;;;4972354;28;20252;-79
2023/01/26 14:16:38;;;;;;;16.67;9.97;;;;;;;;;;4978045;28;20234;-79
2023/01/26 14:19:18;;;;;;;19.63;11.70;;;;;;;;;;4973375;28;20213;-79
2023/01/26 14:21:59;;;;;;;18.07;11.97;;;;;;;;;;4994659;28;20229;-77
2023/01/26 14:24:34;;;;;;;18.57;11.93;;;;;;;;;;4966721;28;20232;-80
2023/01/26 14:27:03;;;;;;;17.40;11.20;;;;;;;;;;4961307;28;20244;-77
2023/01/26 14:29:29;;;;;;;14.63;10.33;;;;;;;;;;4990822;28;20229;-78
2023/01/26 14:32:00;;;;;;;14.23;10.17;;;;;;;;;;4946698;28;20241;-80
2023/01/26 14:34:27;;;;;;;16.47;10.07;;;;;;;;;;4980549;28;20217;-80
2023/01/26 14:37:14;;;;;;;16.80;11.93;;;;;;;;;;4981049;28;20221;-77
2023/01/26 14:39:41;;;;;;;17.43;11.00;;;;;;;;;;4959534;28;20228;-79
2023/01/26 14:42:13;;;;;;;16.27;10.43;;;;;;;;;;4980749;28;20240;-77
2023/01/26 14:44:38;;;;;;;14.23;11.67;;;;;;;;;;4969477;28;20308;-80
2023/01/26 14:47:27;;;;;;;14.67;10.43;;;;;;;;;;4986778;28;20223;-77
2023/01/26 14:50:26;;;;;;;17.20;10.70;;;;;;;;;;5005504;28;20812;-78
2023/01/26 14:52:51;;;;;;;11.13;9.93;;;;;;;;;;4972439;28;20230;-77
2023/01/26 14:55:35;;;;;;;19.50;10.87;;;;;;;;;;4950158;28;20297;-78
2023/01/26 14:58:01;;;;;;;15.73;10.90;;;;;;;;;;4987179;28;20217;-79
2023/01/26 15:00:30;;;;;;;13.87;11.07;;;;;;;;;;4979137;28;20229;-80
2023/01/26 15:03:01;;;;;;;10.90;9.43;;;;;;;;;;4982040;28;20241;-78
2023/01/26 15:05:40;;;;;;;17.47;10.30;;;;;;;;;;4980168;28;20264;-77
2023/01/26 15:08:22;;;;;;;12.47;9.57;;;;;;;;;;4976354;28;20691;-79
2023/01/26 15:13:54;;;;;;;12.33;9.80;;;;;;;;;;4991122;28;20229;-81
2023/01/26 15:16:24;;;;;;;16.17;10.83;;;;;;;;;;4985981;28;20213;-81
2023/01/26 15:19:07;;;;;;;26.77;13.10;;;;;;;;;;4972073;28;20225;-78
2023/01/26 15:21:33;;;;;;;16.10;11.33;;;;;;;;;;4958622;28;20280;-80
2023/01/26 15:23:59;;;;;;;19.17;10.57;;;;;;;;;;4959708;28;20498;-79
2023/01/26 15:26:29;;;;;;;16.87;9.73;;;;;;;;;;4981930;28;20224;-79
2023/01/26 15:28:56;;;;;;;15.23;10.23;;;;;;;;;;5002259;28;20233;-81
2023/01/26 15:31:33;;;;;;;17.17;11.10;;;;;;;;;;4960368;28;20210;-79
2023/01/26 15:34:02;;;;;;;18.63;13.10;;;;;;;;;;4969876;28;20299;-80